sensor_id;sensor_type;location;lat;lon;timestamp;P1;durP1;ratioP1;P2;durP2;ratioP2
7334;SDS011;3708;42.632;23.378;2023-06-26T00:01:05;22.03;;;18.53;;
7334;SDS011;3708;42.632;23.378;2023-06-26T00:03:32;26.07;;;18.87;;
7334;SDS011;3708;42.632;23.378;2023-06-26T00:05:59;24.03;;;19.70;;
7334;SDS011;3708;42.632;23.378;2023-06-26T00:08:28;25.23;;;19.30;;
7334;SDS011;3708;42.632;23.378;2023-06-26T00:10:55;23.13;;;19.03;;
7334;SDS011;3708;42.632;23.378;2023-06-26T00:13:22;21.50;;;18.47;;
7334;SDS011;3708;42.632;23.378;2023-06-26T00:15:49;19.57;;;17.43;;
7334;SDS011;3708;42.632;23.378;2023-06-26T00:18:16;22.73;;;17.80;;
7334;SDS011;3708;42.632;23.378;2023-06-26T00:20:43;23.70;;;17.27;;
7334;SDS011;3708;42.632;23.378;2023-06-26T00:23:11;27.83;;;16.90;;
7334;SDS011;3708;42.632;23.378;2023-06-26T00:25:39;24.53;;;16.40;;
7334;SDS011;3708;42.632;23.378;2023-06-26T00:28:06;20.80;;;16.33;;
7334;SDS011;3708;42.632;23.378;2023-06-26T00:30:33;21.60;;;17.20;;
7334;SDS011;3708;42.632;23.378;2023-06-26T00:33:00;20.07;;;17.50;;
7334;SDS011;3708;42.632;23.378;2023-06-26T00:35:27;18.03;;;15.93;;
7334;SDS011;3708;42.632;23.378;2023-06-26T00:37:54;20.50;;;16.37;;
7334;SDS011;3708;42.632;23.378;2023-06-26T00:40:21;21.27;;;15.77;;
7334;SDS011;3708;42.632;23.378;2023-06-26T00:42:49;18.97;;;15.33;;
7334;SDS011;3708;42.632;23.378;2023-06-26T00:45:16;19.87;;;16.27;;
7334;SDS011;3708;42.632;23.378;2023-06-26T00:47:43;18.40;;;14.90;;
7334;SDS011;3708;42.632;23.378;2023-06-26T00:50:10;17.60;;;14.33;;
7334;SDS011;3708;42.632;23.378;2023-06-26T00:52:38;18.87;;;14.00;;
7334;SDS011;3708;42.632;23.378;2023-06-26T00:55:05;18.77;;;15.23;;
7334;SDS011;3708;42.632;23.378;2023-06-26T00:57:32;17.03;;;14.13;;
7334;SDS011;3708;42.632;23.378;2023-06-26T01:00:02;16.83;;;14.30;;
7334;SDS011;3708;42.632;23.378;2023-06-26T01:02:30;16.47;;;14.30;;
7334;SDS011;3708;42.632;23.378;2023-06-26T01:04:59;20.97;;;14.30;;
7334;SDS011;3708;42.632;23.378;2023-06-26T01:07:28;15.20;;;13.50;;
7334;SDS011;3708;42.632;23.378;2023-06-26T01:09:57;16.80;;;14.40;;
7334;SDS011;3708;42.632;23.378;2023-06-26T01:12:25;18.53;;;13.63;;
7334;SDS011;3708;42.632;23.378;2023-06-26T01:14:52;16.27;;;12.93;;
7334;SDS011;3708;42.632;23.378;2023-06-26T01:17:20;16.87;;;13.43;;
7334;SDS011;3708;42.632;23.378;2023-06-26T01:19:48;16.53;;;12.93;;
7334;SDS011;3708;42.632;23.378;2023-06-26T01:22:16;19.13;;;13.40;;
7334;SDS011;3708;42.632;23.378;2023-06-26T01:24:53;20.77;;;13.17;;
7334;SDS011;3708;42.632;23.378;2023-06-26T01:27:30;14.40;;;12.90;;
7334;SDS011;3708;42.632;23.378;2023-06-26T01:29:58;15.60;;;13.33;;
7334;SDS011;3708;42.632;23.378;2023-06-26T01:32:29;17.30;;;13.97;;
7334;SDS011;3708;42.632;23.378;2023-06-26T01:34:57;17.77;;;14.07;;
7334;SDS011;3708;42.632;23.378;2023-06-26T01:37:24;15.07;;;13.47;;
7334;SDS011;3708;42.632;23.378;2023-06-26T01:39:51;16.93;;;14.07;;
7334;SDS011;3708;42.632;23.378;2023-06-26T01:42:17;14.17;;;12.77;;
7334;SDS011;3708;42.632;23.378;2023-06-26T01:44:46;17.00;;;12.47;;
7334;SDS011;3708;42.632;23.378;2023-06-26T01:47:14;13.60;;;12.20;;
7334;SDS011;3708;42.632;23.378;2023-06-26T01:49:47;14.70;;;13.17;;
7334;SDS011;3708;42.632;23.378;2023-06-26T01:52:18;16.67;;;13.70;;
7334;SDS011;3708;42.632;23.378;2023-06-26T01:54:55;17.53;;;13.50;;
7334;SDS011;3708;42.632;23.378;2023-06-26T01:57:27;17.83;;;13.00;;
7334;SDS011;3708;42.632;23.378;2023-06-26T01:59:57;18.60;;;13.67;;
7334;SDS011;3708;42.632;23.378;2023-06-26T02:02:25;14.97;;;13.47;;
7334;SDS011;3708;42.632;23.378;2023-06-26T02:04:54;14.83;;;12.87;;
7334;SDS011;3708;42.632;23.378;2023-06-26T02:07:21;22.43;;;14.93;;
7334;SDS011;3708;42.632;23.378;2023-06-26T02:09:48;15.77;;;14.07;;
7334;SDS011;3708;42.632;23.378;2023-06-26T02:12:15;15.63;;;12.90;;
7334;SDS011;3708;42.632;23.378;2023-06-26T02:14:42;15.27;;;12.60;;
7334;SDS011;3708;42.632;23.378;2023-06-26T02:17:10;17.13;;;13.67;;
7334;SDS011;3708;42.632;23.378;2023-06-26T02:19:37;16.57;;;13.50;;
7334;SDS011;3708;42.632;23.378;2023-06-26T02:22:12;15.97;;;14.20;;
7334;SDS011;3708;42.632;23.378;2023-06-26T02:24:39;15.80;;;13.57;;
7334;SDS011;3708;42.632;23.378;2023-06-26T02:27:06;17.00;;;13.40;;
7334;SDS011;3708;42.632;23.378;2023-06-26T02:29:33;19.37;;;13.93;;
7334;SDS011;3708;42.632;23.378;2023-06-26T02:32:00;17.80;;;14.33;;
7334;SDS011;3708;42.632;23.378;2023-06-26T02:34:28;30.07;;;14.50;;
7334;SDS011;3708;42.632;23.378;2023-06-26T02:36:55;17.03;;;14.37;;
7334;SDS011;3708;42.632;23.378;2023-06-26T02:39:23;16.93;;;14.57;;
7334;SDS011;3708;42.632;23.378;2023-06-26T02:41:50;21.33;;;15.33;;
7334;SDS011;3708;42.632;23.378;2023-06-26T02:44:17;15.63;;;14.03;;
7334;SDS011;3708;42.632;23.378;2023-06-26T02:46:44;18.03;;;14.20;;
7334;SDS011;3708;42.632;23.378;2023-06-26T02:49:11;16.77;;;15.07;;
7334;SDS011;3708;42.632;23.378;2023-06-26T02:51:39;18.63;;;16.17;;
7334;SDS011;3708;42.632;23.378;2023-06-26T02:54:06;18.70;;;16.40;;
7334;SDS011;3708;42.632;23.378;2023-06-26T02:56:32;21.20;;;16.63;;
7334;SDS011;3708;42.632;23.378;2023-06-26T02:58:59;19.87;;;16.43;;
7334;SDS011;3708;42.632;23.378;2023-06-26T03:01:26;18.90;;;16.90;;
7334;SDS011;3708;42.632;23.378;2023-06-26T03:03:54;19.03;;;16.73;;
7334;SDS011;3708;42.632;23.378;2023-06-26T03:06:21;18.07;;;16.17;;
7334;SDS011;3708;42.632;23.378;2023-06-26T03:08:49;20.63;;;15.80;;
7334;SDS011;3708;42.632;23.378;2023-06-26T03:11:16;19.70;;;16.37;;
7334;SDS011;3708;42.632;23.378;2023-06-26T03:13:43;22.17;;;18.07;;
7334;SDS011;3708;42.632;23.378;2023-06-26T03:16:10;19.80;;;17.27;;
7334;SDS011;3708;42.632;23.378;2023-06-26T03:18:37;18.67;;;16.77;;
7334;SDS011;3708;42.632;23.378;2023-06-26T03:21:04;20.43;;;16.90;;
7334;SDS011;3708;42.632;23.378;2023-06-26T03:23:31;20.00;;;16.50;;
7334;SDS011;3708;42.632;23.378;2023-06-26T03:25:59;20.40;;;17.67;;
7334;SDS011;3708;42.632;23.378;2023-06-26T03:28:26;23.23;;;17.73;;
7334;SDS011;3708;42.632;23.378;2023-06-26T03:30:53;18.10;;;16.17;;
7334;SDS011;3708;42.632;23.378;2023-06-26T03:33:19;18.90;;;17.00;;
7334;SDS011;3708;42.632;23.378;2023-06-26T03:35:46;21.13;;;17.03;;
7334;SDS011;3708;42.632;23.378;2023-06-26T03:38:13;18.50;;;16.60;;
7334;SDS011;3708;42.632;23.378;2023-06-26T03:40:40;19.00;;;17.03;;
7334;SDS011;3708;42.632;23.378;2023-06-26T03:43:08;18.47;;;16.57;;
7334;SDS011;3708;42.632;23.378;2023-06-26T03:45:35;22.17;;;16.63;;
7334;SDS011;3708;42.632;23.378;2023-06-26T03:48:02;20.73;;;18.30;;
7334;SDS011;3708;42.632;23.378;2023-06-26T03:50:29;19.40;;;17.30;;
7334;SDS011;3708;42.632;23.378;2023-06-26T03:52:56;24.77;;;18.70;;
7334;SDS011;3708;42.632;23.378;2023-06-26T03:55:24;19.53;;;17.43;;
7334;SDS011;3708;42.632;23.378;2023-06-26T03:57:51;22.77;;;18.40;;
7334;SDS011;3708;42.632;23.378;2023-06-26T04:00:19;22.43;;;17.40;;
7334;SDS011;3708;42.632;23.378;2023-06-26T04:02:46;22.13;;;17.90;;
7334;SDS011;3708;42.632;23.378;2023-06-26T04:05:13;20.00;;;17.90;;
7334;SDS011;3708;42.632;23.378;2023-06-26T04:07:42;22.90;;;17.63;;
7334;SDS011;3708;42.632;23.378;2023-06-26T04:10:09;21.00;;;17.47;;
7334;SDS011;3708;42.632;23.378;2023-06-26T04:12:36;25.10;;;17.90;;
7334;SDS011;3708;42.632;23.378;2023-06-26T04:15:03;20.10;;;17.70;;
7334;SDS011;3708;42.632;23.378;2023-06-26T04:17:32;19.10;;;17.03;;
7334;SDS011;3708;42.632;23.378;2023-06-26T04:19:59;18.23;;;16.03;;
7334;SDS011;3708;42.632;23.378;2023-06-26T04:22:25;17.63;;;15.83;;
7334;SDS011;3708;42.632;23.378;2023-06-26T04:24:52;21.77;;;16.83;;
7334;SDS011;3708;42.632;23.378;2023-06-26T04:27:20;17.13;;;15.43;;
7334;SDS011;3708;42.632;23.378;2023-06-26T04:29:46;17.23;;;15.43;;
7334;SDS011;3708;42.632;23.378;2023-06-26T04:32:13;17.80;;;15.77;;
7334;SDS011;3708;42.632;23.378;2023-06-26T04:34:41;20.17;;;16.47;;
7334;SDS011;3708;42.632;23.378;2023-06-26T04:37:13;17.20;;;15.30;;
7334;SDS011;3708;42.632;23.378;2023-06-26T04:39:42;16.20;;;14.63;;
7334;SDS011;3708;42.632;23.378;2023-06-26T04:42:09;17.13;;;15.30;;
7334;SDS011;3708;42.632;23.378;2023-06-26T04:44:37;16.50;;;14.77;;
7334;SDS011;3708;42.632;23.378;2023-06-26T04:47:06;15.83;;;14.07;;
7334;SDS011;3708;42.632;23.378;2023-06-26T04:49:33;18.20;;;15.43;;
7334;SDS011;3708;42.632;23.378;2023-06-26T04:52:01;18.33;;;16.43;;
7334;SDS011;3708;42.632;23.378;2023-06-26T04:54:28;16.87;;;14.87;;
7334;SDS011;3708;42.632;23.378;2023-06-26T04:56:55;16.90;;;14.67;;
7334;SDS011;3708;42.632;23.378;2023-06-26T04:59:22;17.40;;;15.40;;
7334;SDS011;3708;42.632;23.378;2023-06-26T05:01:49;18.13;;;16.23;;
7334;SDS011;3708;42.632;23.378;2023-06-26T05:04:15;18.10;;;16.23;;
7334;SDS011;3708;42.632;23.378;2023-06-26T05:06:45;19.20;;;17.20;;
7334;SDS011;3708;42.632;23.378;2023-06-26T05:09:14;17.73;;;15.73;;
7334;SDS011;3708;42.632;23.378;2023-06-26T05:11:44;20.13;;;16.17;;
7334;SDS011;3708;42.632;23.378;2023-06-26T05:14:19;16.23;;;14.63;;
7334;SDS011;3708;42.632;23.378;2023-06-26T05:16:46;17.83;;;16.03;;
7334;SDS011;3708;42.632;23.378;2023-06-26T05:19:13;19.17;;;16.03;;
7334;SDS011;3708;42.632;23.378;2023-06-26T05:21:39;18.23;;;15.37;;
7334;SDS011;3708;42.632;23.378;2023-06-26T05:24:07;20.73;;;16.60;;
7334;SDS011;3708;42.632;23.378;2023-06-26T05:26:39;18.80;;;16.90;;
7334;SDS011;3708;42.632;23.378;2023-06-26T05:29:06;18.10;;;15.23;;
7334;SDS011;3708;42.632;23.378;2023-06-26T05:31:33;18.77;;;16.10;;
7334;SDS011;3708;42.632;23.378;2023-06-26T05:34:06;17.60;;;15.80;;
7334;SDS011;3708;42.632;23.378;2023-06-26T05:36:34;17.67;;;14.83;;
7334;SDS011;3708;42.632;23.378;2023-06-26T05:39:02;18.30;;;15.63;;
7334;SDS011;3708;42.632;23.378;2023-06-26T05:41:30;18.87;;;15.53;;
7334;SDS011;3708;42.632;23.378;2023-06-26T05:43:58;16.87;;;15.07;;
7334;SDS011;3708;42.632;23.378;2023-06-26T05:46:25;16.03;;;14.43;;
7334;SDS011;3708;42.632;23.378;2023-06-26T05:48:52;18.20;;;13.77;;
7334;SDS011;3708;42.632;23.378;2023-06-26T05:51:19;18.47;;;14.53;;
7334;SDS011;3708;42.632;23.378;2023-06-26T05:53:46;18.57;;;14.17;;
7334;SDS011;3708;42.632;23.378;2023-06-26T05:56:13;15.93;;;13.40;;
7334;SDS011;3708;42.632;23.378;2023-06-26T05:58:41;16.33;;;14.73;;
7334;SDS011;3708;42.632;23.378;2023-06-26T06:01:10;13.50;;;12.20;;
7334;SDS011;3708;42.632;23.378;2023-06-26T06:03:38;16.47;;;13.83;;
7334;SDS011;3708;42.632;23.378;2023-06-26T06:06:06;17.37;;;14.33;;
7334;SDS011;3708;42.632;23.378;2023-06-26T06:08:33;16.43;;;14.73;;
7334;SDS011;3708;42.632;23.378;2023-06-26T06:11:00;16.27;;;14.20;;
7334;SDS011;3708;42.632;23.378;2023-06-26T06:13:27;17.07;;;14.83;;
7334;SDS011;3708;42.632;23.378;2023-06-26T06:15:54;19.67;;;14.27;;
7334;SDS011;3708;42.632;23.378;2023-06-26T06:18:22;16.00;;;14.20;;
7334;SDS011;3708;42.632;23.378;2023-06-26T06:20:49;17.47;;;14.20;;
7334;SDS011;3708;42.632;23.378;2023-06-26T06:23:16;14.90;;;13.30;;
7334;SDS011;3708;42.632;23.378;2023-06-26T06:25:43;14.17;;;12.73;;
7334;SDS011;3708;42.632;23.378;2023-06-26T06:28:10;15.53;;;13.70;;
7334;SDS011;3708;42.632;23.378;2023-06-26T06:30:36;13.60;;;12.23;;
7334;SDS011;3708;42.632;23.378;2023-06-26T06:33:03;14.80;;;11.77;;
7334;SDS011;3708;42.632;23.378;2023-06-26T06:35:31;14.43;;;12.73;;
7334;SDS011;3708;42.632;23.378;2023-06-26T06:37:58;13.63;;;12.23;;
7334;SDS011;3708;42.632;23.378;2023-06-26T06:40:25;14.13;;;12.63;;
7334;SDS011;3708;42.632;23.378;2023-06-26T06:42:52;13.65;;;12.15;;
7334;SDS011;3708;42.632;23.378;2023-06-26T06:45:19;16.75;;;12.60;;
7334;SDS011;3708;42.632;23.378;2023-06-26T06:47:46;12.82;;;11.63;;
7334;SDS011;3708;42.632;23.378;2023-06-26T06:50:13;13.90;;;11.50;;
7334;SDS011;3708;42.632;23.378;2023-06-26T06:52:42;13.33;;;11.60;;
7334;SDS011;3708;42.632;23.378;2023-06-26T06:55:09;12.27;;;11.07;;
7334;SDS011;3708;42.632;23.378;2023-06-26T06:57:36;12.33;;;11.13;;
7334;SDS011;3708;42.632;23.378;2023-06-26T07:00:05;15.13;;;10.83;;
7334;SDS011;3708;42.632;23.378;2023-06-26T07:02:34;13.57;;;10.65;;
7334;SDS011;3708;42.632;23.378;2023-06-26T07:05:02;12.27;;;11.07;;
7334;SDS011;3708;42.632;23.378;2023-06-26T07:07:30;12.33;;;11.13;;
7334;SDS011;3708;42.632;23.378;2023-06-26T07:09:59;12.65;;;10.77;;
7334;SDS011;3708;42.632;23.378;2023-06-26T07:12:27;13.82;;;11.55;;
7334;SDS011;3708;42.632;23.378;2023-06-26T07:14:54;13.57;;;11.00;;
7334;SDS011;3708;42.632;23.378;2023-06-26T07:17:21;12.55;;;11.18;;
7334;SDS011;3708;42.632;23.378;2023-06-26T07:19:48;11.52;;;9.30;;
7334;SDS011;3708;42.632;23.378;2023-06-26T07:22:15;12.13;;;10.13;;
7334;SDS011;3708;42.632;23.378;2023-06-26T07:24:45;11.65;;;9.18;;
7334;SDS011;3708;42.632;23.378;2023-06-26T07:27:13;12.93;;;9.25;;
7334;SDS011;3708;42.632;23.378;2023-06-26T07:29:40;13.57;;;8.57;;
7334;SDS011;3708;42.632;23.378;2023-06-26T07:32:07;15.75;;;8.70;;
7334;SDS011;3708;42.632;23.378;2023-06-26T07:34:34;11.07;;;8.77;;
7334;SDS011;3708;42.632;23.378;2023-06-26T07:37:00;8.05;;;7.18;;
7334;SDS011;3708;42.632;23.378;2023-06-26T07:39:27;11.77;;;8.45;;
7334;SDS011;3708;42.632;23.378;2023-06-26T07:41:54;9.07;;;8.18;;
7334;SDS011;3708;42.632;23.378;2023-06-26T07:44:24;11.35;;;7.38;;
7334;SDS011;3708;42.632;23.378;2023-06-26T07:46:51;8.75;;;7.32;;
7334;SDS011;3708;42.632;23.378;2023-06-26T07:49:18;9.27;;;7.00;;
7334;SDS011;3708;42.632;23.378;2023-06-26T07:51:45;7.28;;;6.57;;
7334;SDS011;3708;42.632;23.378;2023-06-26T07:54:11;6.80;;;5.97;;
7334;SDS011;3708;42.632;23.378;2023-06-26T07:56:52;8.13;;;6.13;;
7334;SDS011;3708;42.632;23.378;2023-06-26T07:59:19;7.82;;;6.30;;
7334;SDS011;3708;42.632;23.378;2023-06-26T08:01:48;6.85;;;6.15;;
7334;SDS011;3708;42.632;23.378;2023-06-26T08:04:17;8.32;;;6.72;;
7334;SDS011;3708;42.632;23.378;2023-06-26T08:06:44;8.63;;;6.18;;
7334;SDS011;3708;42.632;23.378;2023-06-26T08:09:11;9.00;;;6.22;;
7334;SDS011;3708;42.632;23.378;2023-06-26T08:11:38;7.35;;;6.30;;
7334;SDS011;3708;42.632;23.378;2023-06-26T08:14:04;6.70;;;6.00;;
7334;SDS011;3708;42.632;23.378;2023-06-26T08:16:31;9.63;;;5.90;;
7334;SDS011;3708;42.632;23.378;2023-06-26T08:18:59;8.75;;;5.50;;
7334;SDS011;3708;42.632;23.378;2023-06-26T08:21:27;6.30;;;5.70;;
7334;SDS011;3708;42.632;23.378;2023-06-26T08:23:54;8.50;;;5.80;;
7334;SDS011;3708;42.632;23.378;2023-06-26T08:26:21;6.82;;;6.15;;
7334;SDS011;3708;42.632;23.378;2023-06-26T08:28:47;8.07;;;5.70;;
7334;SDS011;3708;42.632;23.378;2023-06-26T08:31:14;7.50;;;6.50;;
7334;SDS011;3708;42.632;23.378;2023-06-26T08:33:42;6.00;;;5.32;;
7334;SDS011;3708;42.632;23.378;2023-06-26T08:36:10;6.65;;;4.55;;
7334;SDS011;3708;42.632;23.378;2023-06-26T08:38:37;6.90;;;5.55;;
7334;SDS011;3708;42.632;23.378;2023-06-26T08:41:05;5.50;;;4.93;;
7334;SDS011;3708;42.632;23.378;2023-06-26T08:43:32;9.10;;;5.90;;
7334;SDS011;3708;42.632;23.378;2023-06-26T08:46:00;6.20;;;5.15;;
7334;SDS011;3708;42.632;23.378;2023-06-26T08:48:27;6.43;;;5.43;;
7334;SDS011;3708;42.632;23.378;2023-06-26T08:50:58;6.45;;;5.70;;
7334;SDS011;3708;42.632;23.378;2023-06-26T08:53:36;6.75;;;6.03;;
7334;SDS011;3708;42.632;23.378;2023-06-26T08:56:09;10.60;;;6.43;;
7334;SDS011;3708;42.632;23.378;2023-06-26T08:58:39;6.05;;;5.38;;
7334;SDS011;3708;42.632;23.378;2023-06-26T09:01:06;9.15;;;5.63;;
7334;SDS011;3708;42.632;23.378;2023-06-26T09:03:35;7.43;;;5.50;;
7334;SDS011;3708;42.632;23.378;2023-06-26T09:06:02;6.22;;;5.28;;
7334;SDS011;3708;42.632;23.378;2023-06-26T09:08:29;7.72;;;5.78;;
7334;SDS011;3708;42.632;23.378;2023-06-26T09:10:58;5.35;;;4.75;;
7334;SDS011;3708;42.632;23.378;2023-06-26T09:13:25;5.72;;;5.13;;
7334;SDS011;3708;42.632;23.378;2023-06-26T09:15:52;5.95;;;5.28;;
7334;SDS011;3708;42.632;23.378;2023-06-26T09:18:21;7.53;;;5.63;;
7334;SDS011;3708;42.632;23.378;2023-06-26T09:20:48;9.13;;;5.38;;
7334;SDS011;3708;42.632;23.378;2023-06-26T09:23:15;5.75;;;5.00;;
7334;SDS011;3708;42.632;23.378;2023-06-26T09:25:43;8.98;;;5.30;;
7334;SDS011;3708;42.632;23.378;2023-06-26T09:28:11;6.00;;;5.07;;
7334;SDS011;3708;42.632;23.378;2023-06-26T09:30:38;7.68;;;5.20;;
7334;SDS011;3708;42.632;23.378;2023-06-26T09:33:14;5.88;;;5.15;;
7334;SDS011;3708;42.632;23.378;2023-06-26T09:35:42;6.85;;;5.55;;
7334;SDS011;3708;42.632;23.378;2023-06-26T09:38:09;5.57;;;5.07;;
7334;SDS011;3708;42.632;23.378;2023-06-26T09:40:36;6.90;;;5.32;;
7334;SDS011;3708;42.632;23.378;2023-06-26T09:43:03;7.45;;;5.13;;
7334;SDS011;3708;42.632;23.378;2023-06-26T09:45:32;6.53;;;4.65;;
7334;SDS011;3708;42.632;23.378;2023-06-26T09:47:59;6.95;;;5.25;;
7334;SDS011;3708;42.632;23.378;2023-06-26T09:50:28;5.55;;;5.05;;
7334;SDS011;3708;42.632;23.378;2023-06-26T09:52:57;6.15;;;5.55;;
7334;SDS011;3708;42.632;23.378;2023-06-26T09:55:24;7.43;;;5.75;;
7334;SDS011;3708;42.632;23.378;2023-06-26T09:57:52;6.53;;;5.75;;
7334;SDS011;3708;42.632;23.378;2023-06-26T10:00:23;5.97;;;4.95;;
7334;SDS011;3708;42.632;23.378;2023-06-26T10:02:51;7.28;;;5.85;;
7334;SDS011;3708;42.632;23.378;2023-06-26T10:05:17;8.50;;;5.50;;
7334;SDS011;3708;42.632;23.378;2023-06-26T10:07:44;7.00;;;5.68;;
7334;SDS011;3708;42.632;23.378;2023-06-26T10:10:13;8.32;;;5.45;;
7334;SDS011;3708;42.632;23.378;2023-06-26T10:12:41;5.90;;;5.30;;
7334;SDS011;3708;42.632;23.378;2023-06-26T10:15:11;6.18;;;5.25;;
7334;SDS011;3708;42.632;23.378;2023-06-26T10:17:42;5.70;;;5.18;;
7334;SDS011;3708;42.632;23.378;2023-06-26T10:20:14;6.82;;;5.22;;
7334;SDS011;3708;42.632;23.378;2023-06-26T10:22:42;7.93;;;5.00;;
7334;SDS011;3708;42.632;23.378;2023-06-26T10:25:12;5.68;;;5.13;;
7334;SDS011;3708;42.632;23.378;2023-06-26T10:27:44;7.97;;;5.60;;
7334;SDS011;3708;42.632;23.378;2023-06-26T10:30:16;6.03;;;4.90;;
7334;SDS011;3708;42.632;23.378;2023-06-26T10:32:46;8.07;;;4.97;;
7334;SDS011;3708;42.632;23.378;2023-06-26T10:35:16;6.00;;;5.38;;
7334;SDS011;3708;42.632;23.378;2023-06-26T10:37:43;5.53;;;4.90;;
7334;SDS011;3708;42.632;23.378;2023-06-26T10:40:11;9.50;;;5.78;;
7334;SDS011;3708;42.632;23.378;2023-06-26T10:42:39;6.45;;;5.78;;
7334;SDS011;3708;42.632;23.378;2023-06-26T10:45:09;6.25;;;5.65;;
7334;SDS011;3708;42.632;23.378;2023-06-26T10:47:37;8.63;;;5.15;;
7334;SDS011;3708;42.632;23.378;2023-06-26T10:50:17;8.95;;;6.20;;
7334;SDS011;3708;42.632;23.378;2023-06-26T10:52:45;6.47;;;5.45;;
7334;SDS011;3708;42.632;23.378;2023-06-26T10:55:13;6.95;;;4.95;;
7334;SDS011;3708;42.632;23.378;2023-06-26T10:57:40;6.22;;;5.32;;
7334;SDS011;3708;42.632;23.378;2023-06-26T11:00:14;7.47;;;5.32;;
7334;SDS011;3708;42.632;23.378;2023-06-26T11:02:47;9.40;;;5.22;;
7334;SDS011;3708;42.632;23.378;2023-06-26T11:05:24;9.18;;;5.70;;
7334;SDS011;3708;42.632;23.378;2023-06-26T11:08:05;8.18;;;5.38;;
7334;SDS011;3708;42.632;23.378;2023-06-26T11:10:50;9.25;;;5.30;;
7334;SDS011;3708;42.632;23.378;2023-06-26T11:13:17;10.00;;;5.07;;
7334;SDS011;3708;42.632;23.378;2023-06-26T11:15:46;6.60;;;5.93;;
7334;SDS011;3708;42.632;23.378;2023-06-26T11:18:13;6.40;;;5.35;;
7334;SDS011;3708;42.632;23.378;2023-06-26T11:20:41;6.95;;;5.05;;
7334;SDS011;3708;42.632;23.378;2023-06-26T11:23:08;7.57;;;5.75;;
7334;SDS011;3708;42.632;23.378;2023-06-26T11:25:36;7.82;;;5.43;;
7334;SDS011;3708;42.632;23.378;2023-06-26T11:28:03;6.43;;;4.80;;
7334;SDS011;3708;42.632;23.378;2023-06-26T11:30:31;5.65;;;4.78;;
7334;SDS011;3708;42.632;23.378;2023-06-26T11:33:05;5.22;;;4.50;;
7334;SDS011;3708;42.632;23.378;2023-06-26T11:35:32;4.93;;;4.03;;
7334;SDS011;3708;42.632;23.378;2023-06-26T11:38:00;6.47;;;4.70;;
7334;SDS011;3708;42.632;23.378;2023-06-26T11:40:30;5.68;;;5.00;;
7334;SDS011;3708;42.632;23.378;2023-06-26T11:42:57;8.70;;;5.95;;
7334;SDS011;3708;42.632;23.378;2023-06-26T11:45:25;5.53;;;5.03;;
7334;SDS011;3708;42.632;23.378;2023-06-26T11:47:54;6.55;;;5.13;;
7334;SDS011;3708;42.632;23.378;2023-06-26T11:50:21;5.57;;;5.07;;
7334;SDS011;3708;42.632;23.378;2023-06-26T11:52:52;6.55;;;4.90;;
7334;SDS011;3708;42.632;23.378;2023-06-26T11:55:22;6.95;;;5.63;;
7334;SDS011;3708;42.632;23.378;2023-06-26T11:57:49;5.57;;;5.00;;
7334;SDS011;3708;42.632;23.378;2023-06-26T12:00:16;10.02;;;5.43;;
7334;SDS011;3708;42.632;23.378;2023-06-26T12:02:44;5.22;;;4.63;;
7334;SDS011;3708;42.632;23.378;2023-06-26T12:05:11;6.65;;;5.43;;
7334;SDS011;3708;42.632;23.378;2023-06-26T12:07:39;6.30;;;4.90;;
7334;SDS011;3708;42.632;23.378;2023-06-26T12:10:07;7.25;;;5.13;;
7334;SDS011;3708;42.632;23.378;2023-06-26T12:12:37;5.47;;;4.97;;
7334;SDS011;3708;42.632;23.378;2023-06-26T12:15:05;5.35;;;4.85;;
7334;SDS011;3708;42.632;23.378;2023-06-26T12:17:36;7.50;;;5.40;;
7334;SDS011;3708;42.632;23.378;2023-06-26T12:20:04;7.25;;;5.38;;
7334;SDS011;3708;42.632;23.378;2023-06-26T12:22:34;6.00;;;5.32;;
7334;SDS011;3708;42.632;23.378;2023-06-26T12:25:01;7.18;;;5.00;;
7334;SDS011;3708;42.632;23.378;2023-06-26T12:27:31;6.55;;;4.88;;
7334;SDS011;3708;42.632;23.378;2023-06-26T12:29:59;5.88;;;4.93;;
7334;SDS011;3708;42.632;23.378;2023-06-26T12:32:30;5.60;;;4.97;;
7334;SDS011;3708;42.632;23.378;2023-06-26T12:34:57;7.85;;;5.18;;
7334;SDS011;3708;42.632;23.378;2023-06-26T12:37:24;5.53;;;5.03;;
7334;SDS011;3708;42.632;23.378;2023-06-26T12:39:51;6.03;;;4.97;;
7334;SDS011;3708;42.632;23.378;2023-06-26T12:42:19;7.18;;;5.07;;
7334;SDS011;3708;42.632;23.378;2023-06-26T12:44:48;6.03;;;4.97;;
7334;SDS011;3708;42.632;23.378;2023-06-26T12:47:17;5.88;;;4.97;;
7334;SDS011;3708;42.632;23.378;2023-06-26T12:49:50;5.28;;;4.70;;
7334;SDS011;3708;42.632;23.378;2023-06-26T12:52:18;5.90;;;4.75;;
7334;SDS011;3708;42.632;23.378;2023-06-26T12:54:46;6.45;;;4.72;;
7334;SDS011;3708;42.632;23.378;2023-06-26T12:57:17;8.20;;;4.57;;
7334;SDS011;3708;42.632;23.378;2023-06-26T12:59:44;5.65;;;5.05;;
7334;SDS011;3708;42.632;23.378;2023-06-26T13:02:11;5.43;;;4.93;;
7334;SDS011;3708;42.632;23.378;2023-06-26T13:04:39;6.57;;;5.18;;
7334;SDS011;3708;42.632;23.378;2023-06-26T13:07:09;7.07;;;5.38;;
7334;SDS011;3708;42.632;23.378;2023-06-26T13:09:36;6.10;;;5.28;;
7334;SDS011;3708;42.632;23.378;2023-06-26T13:12:05;11.38;;;5.63;;
7334;SDS011;3708;42.632;23.378;2023-06-26T13:14:32;5.70;;;5.10;;
7334;SDS011;3708;42.632;23.378;2023-06-26T13:16:59;7.53;;;5.60;;
7334;SDS011;3708;42.632;23.378;2023-06-26T13:19:26;6.97;;;5.65;;
7334;SDS011;3708;42.632;23.378;2023-06-26T13:21:55;9.88;;;5.97;;
7334;SDS011;3708;42.632;23.378;2023-06-26T13:24:22;6.00;;;5.20;;
7334;SDS011;3708;42.632;23.378;2023-06-26T13:26:48;6.18;;;5.57;;
7334;SDS011;3708;42.632;23.378;2023-06-26T13:29:15;8.65;;;5.95;;
7334;SDS011;3708;42.632;23.378;2023-06-26T13:31:42;7.18;;;5.93;;
7334;SDS011;3708;42.632;23.378;2023-06-26T13:34:09;8.23;;;5.80;;
7334;SDS011;3708;42.632;23.378;2023-06-26T13:36:46;10.15;;;5.90;;
7334;SDS011;3708;42.632;23.378;2023-06-26T13:39:14;9.52;;;5.60;;
7334;SDS011;3708;42.632;23.378;2023-06-26T13:41:41;11.45;;;6.53;;
7334;SDS011;3708;42.632;23.378;2023-06-26T13:44:08;8.00;;;5.70;;
7334;SDS011;3708;42.632;23.378;2023-06-26T13:46:35;7.32;;;5.25;;
7334;SDS011;3708;42.632;23.378;2023-06-26T13:49:01;9.48;;;5.45;;
7334;SDS011;3708;42.632;23.378;2023-06-26T13:51:28;5.50;;;4.90;;
7334;SDS011;3708;42.632;23.378;2023-06-26T13:53:55;6.10;;;5.25;;
7334;SDS011;3708;42.632;23.378;2023-06-26T13:56:26;6.30;;;5.30;;
7334;SDS011;3708;42.632;23.378;2023-06-26T13:58:55;6.53;;;4.85;;
7334;SDS011;3708;42.632;23.378;2023-06-26T14:01:23;7.70;;;5.03;;
7334;SDS011;3708;42.632;23.378;2023-06-26T14:03:50;7.57;;;5.10;;
7334;SDS011;3708;42.632;23.378;2023-06-26T14:06:17;6.50;;;4.70;;
7334;SDS011;3708;42.632;23.378;2023-06-26T14:08:44;9.25;;;5.50;;
7334;SDS011;3708;42.632;23.378;2023-06-26T14:11:10;5.47;;;4.88;;
7334;SDS011;3708;42.632;23.378;2023-06-26T14:13:39;5.63;;;5.10;;
7334;SDS011;3708;42.632;23.378;2023-06-26T14:16:06;8.88;;;5.43;;
7334;SDS011;3708;42.632;23.378;2023-06-26T14:18:33;7.53;;;5.15;;
7334;SDS011;3708;42.632;23.378;2023-06-26T14:21:00;7.70;;;5.55;;
7334;SDS011;3708;42.632;23.378;2023-06-26T14:23:29;9.63;;;5.80;;
7334;SDS011;3708;42.632;23.378;2023-06-26T14:25:55;7.22;;;5.35;;
7334;SDS011;3708;42.632;23.378;2023-06-26T14:28:22;6.75;;;5.00;;
7334;SDS011;3708;42.632;23.378;2023-06-26T14:30:50;10.65;;;6.00;;
7334;SDS011;3708;42.632;23.378;2023-06-26T14:33:18;6.95;;;5.40;;
7334;SDS011;3708;42.632;23.378;2023-06-26T14:35:45;5.80;;;5.20;;
7334;SDS011;3708;42.632;23.378;2023-06-26T14:38:11;11.57;;;5.90;;
7334;SDS011;3708;42.632;23.378;2023-06-26T14:40:38;7.15;;;5.25;;
7334;SDS011;3708;42.632;23.378;2023-06-26T14:43:05;6.72;;;5.30;;
7334;SDS011;3708;42.632;23.378;2023-06-26T14:45:32;5.75;;;5.22;;
7334;SDS011;3708;42.632;23.378;2023-06-26T14:48:00;7.10;;;5.30;;
7334;SDS011;3708;42.632;23.378;2023-06-26T14:50:27;7.90;;;5.60;;
7334;SDS011;3708;42.632;23.378;2023-06-26T14:52:53;9.10;;;5.22;;